地図

経路データ

SID SEASON NUMBER BASIN SUBBASIN NAME ISO_TIME NATURE LAT LON WMO_WIND WMO_PRES WMO_AGENCY TRACK_TYPE DIST2LAND LANDFALL IFLAG USA_AGENCY USA_ATCF_ID USA_LAT USA_LON USA_RECORD USA_STATUS USA_WIND USA_PRES USA_SSHS USA_R34_NE USA_R34_SE USA_R34_SW USA_R34_NW USA_R50_NE USA_R50_SE USA_R50_SW USA_R50_NW USA_R64_NE USA_R64_SE USA_R64_SW USA_R64_NW USA_POCI USA_ROCI USA_RMW USA_EYE TOKYO_LAT TOKYO_LON TOKYO_GRADE TOKYO_WIND TOKYO_PRES TOKYO_R50_DIR TOKYO_R50_LONG TOKYO_R50_SHORT TOKYO_R30_DIR TOKYO_R30_LONG TOKYO_R30_SHORT TOKYO_LAND CMA_LAT CMA_LON CMA_CAT CMA_WIND CMA_PRES HKO_LAT HKO_LON HKO_CAT HKO_WIND HKO_PRES NEWDELHI_LAT NEWDELHI_LON NEWDELHI_GRADE NEWDELHI_WIND NEWDELHI_PRES NEWDELHI_CI NEWDELHI_DP NEWDELHI_POCI REUNION_LAT REUNION_LON REUNION_TYPE REUNION_WIND REUNION_PRES REUNION_TNUM REUNION_CI REUNION_RMW REUNION_R34_NE REUNION_R34_SE REUNION_R34_SW REUNION_R34_NW REUNION_R50_NE REUNION_R50_SE REUNION_R50_SW REUNION_R50_NW REUNION_R64_NE REUNION_R64_SE REUNION_R64_SW REUNION_R64_NW BOM_LAT BOM_LON BOM_TYPE BOM_WIND BOM_PRES BOM_TNUM BOM_CI BOM_RMW BOM_R34_NE BOM_R34_SE BOM_R34_SW BOM_R34_NW BOM_R50_NE BOM_R50_SE BOM_R50_SW BOM_R50_NW BOM_R64_NE BOM_R64_SE BOM_R64_SW BOM_R64_NW BOM_ROCI BOM_POCI BOM_EYE BOM_POS_METHOD BOM_PRES_METHOD NADI_LAT NADI_LON NADI_CAT NADI_WIND NADI_PRES WELLINGTON_LAT WELLINGTON_LON WELLINGTON_WIND WELLINGTON_PRES DS824_LAT DS824_LON DS824_STAGE DS824_WIND DS824_PRES TD9636_LAT TD9636_LON TD9636_STAGE TD9636_WIND TD9636_PRES TD9635_LAT TD9635_LON TD9635_WIND TD9635_PRES TD9635_ROCI NEUMANN_LAT NEUMANN_LON NEUMANN_CLASS NEUMANN_WIND NEUMANN_PRES MLC_LAT MLC_LON MLC_CLASS MLC_WIND MLC_PRES USA_GUST BOM_GUST BOM_GUST_PER REUNION_GUST REUNION_GUST_PER USA_SEAHGT USA_SEARAD_NE USA_SEARAD_SE USA_SEARAD_SW USA_SEARAD_NW STORM_SPEED STORM_DIR
1960067N08148 1960 11 WP MM JEAN 1960-03-07 00:00:00 TS 7.60000 147.500 main 1087 1086 __O___________ -1 7.60000 147.500 1 23 1004 8 271
1960067N08148 1960 11 WP MM JEAN 1960-03-07 03:00:00 TS 7.60759 147.090 main 1086 1086 __P___________ -1 7.60759 147.090 1 23 1004 8 270
1960067N08148 1960 11 WP MM JEAN 1960-03-07 06:00:00 TS 7.60000 146.700 main 1086 1086 __O___________ -1 7.60000 146.700 1 23 1004 7 267
1960067N08148 1960 11 WP MM JEAN 1960-03-07 09:00:00 TS 7.56495 146.343 main 1087 1076 __P___________ -1 7.56495 146.343 1 23 1004 7 262
1960067N08148 1960 11 WP MM JEAN 1960-03-07 12:00:00 TS 7.50000 146.000 main 1077 1068 __O___________ -1 7.50000 146.000 1 23 1004 7 257
1960067N08148 1960 11 WP MM JEAN 1960-03-07 15:00:00 TS 7.40747 145.650 main 1069 1060 __P___________ -1 7.40747 145.650 1 23 1004 7 254
1960067N08148 1960 11 WP MM JEAN 1960-03-07 18:00:00 TS 7.30000 145.300 main 1063 1055 __O___________ -1 7.30000 145.300 1 23 1004 7 253
1960067N08148 1960 11 WP MM JEAN 1960-03-07 21:00:00 TS 7.19246 144.958 main 1057 1050 __P___________ -1 7.19246 144.958 1 23 1004 7 254
1960067N08148 1960 11 WP MM JEAN 1960-03-08 00:00:00 TS 7.10000 144.600 main 1054 1054 __O___________ -1 7.10000 144.600 1 23 1004 8 259
1960067N08148 1960 11 WP MM JEAN 1960-03-08 03:00:00 TS 7.04252 144.193 main 1054 1054 __P___________ -1 7.04252 144.193 1 23 1002 8 263
1960067N08148 1960 11 WP MM JEAN 1960-03-08 06:00:00 TS 7.00000 143.800 main 1066 1066 __O___________ -1 7.00000 143.800 1 23 1000 7 262
1960067N08148 1960 11 WP MM JEAN 1960-03-08 09:00:00 TS 6.94992 143.500 main 1065 1065 __P___________ -1 6.94992 143.500 1 23 1000 6 260
1960067N08148 1960 11 WP MM JEAN 1960-03-08 12:00:00 TS 6.90000 143.200 main 1076 1065 __O___________ -1 6.90000 143.200 1 23 1001 7 260
1960067N08148 1960 11 WP MM JEAN 1960-03-08 15:00:00 TS 6.82750 142.815 main 1065 1047 __P___________ -1 6.82750 142.815 1 23 1001 8 263
1960067N08148 1960 11 WP MM JEAN 1960-03-08 18:00:00 TS 6.80000 142.400 main 1047 1035 __O___________ -1 6.80000 142.400 1 23 1002 8 272
1960067N08148 1960 11 WP MM JEAN 1960-03-08 21:00:00 TS 6.86250 141.985 main 1041 1028 __P___________ -1 6.86250 141.985 1 1003 8 284
1960067N08148 1960 11 WP MM JEAN 1960-03-09 00:00:00 TS 7.00000 141.600 main 1035 1031 __O___________ -1 7.00000 141.600 0 1004 8 295
1960067N08148 1960 11 WP MM JEAN 1960-03-09 03:00:00 TS 7.19248 141.263 main 1044 1040 __P___________ -1 7.19248 141.263 0 1004 7 304
1960067N08148 1960 11 WP MM JEAN 1960-03-09 06:00:00 TS 7.40000 141.000 main 1055 1052 __O___________ -1 7.40000 141.000 0 1004 6 310
1960067N08148 1960 11 WP MM JEAN 1960-03-09 09:00:00 TS 7.55746 140.827 main 1070 1067 __P___________ -1 7.55746 140.827 0 1004 4 316
1960067N08148 1960 11 WP MM JEAN 1960-03-09 12:00:00 TS 7.70000 140.700 main 1078 1078 __O___________ -1 7.70000 140.700 0 1004 4 319
1960067N08148 1960 11 WP MM JEAN 1960-03-09 15:00:00 TS 7.85747 140.565 main 1097 1094 __P___________ -1 7.85747 140.565 0 1004 4 316
1960067N08148 1960 11 WP MM JEAN 1960-03-09 18:00:00 TS 8.00000 140.400 main 1103 1100 __O___________ -1 8.00000 140.400 0 1004 5 303
1960067N08148 1960 11 WP MM JEAN 1960-03-09 21:00:00 TS 8.11502 140.158 main 1105 1100 __P___________ -1 8.11502 140.158 0 1004 5 292
1960067N08148 1960 11 WP MM JEAN 1960-03-10 00:00:00 TS 8.20000 139.900 main 1101 1097 __O___________ -1 8.20000 139.900 0 1004 5 288
1960067N08148 1960 11 WP MM JEAN 1960-03-10 03:00:00 TS 8.26498 139.692 main 1103 1095 __P___________ -1 8.26498 139.692 0 1004 4 284
1960067N08148 1960 11 WP MM JEAN 1960-03-10 06:00:00 TS 8.30000 139.500 main 1095 1087 __O___________ -1 8.30000 139.500 0 1004 4 277
1960067N08148 1960 11 WP MM JEAN 1960-03-10 09:00:00 TS 8.30745 139.322 main 1087 1079 __P___________ -1 8.30745 139.322 0 1004 4 270
1960067N08148 1960 11 WP MM JEAN 1960-03-10 12:00:00 TS 8.30000 139.100 main 1079 1069 __O___________ -1 8.30000 139.100 0 1004 5 269
1960067N08148 1960 11 WP MM JEAN 1960-03-10 15:00:00 TS 8.29761 138.780 main 1069 1055 __P___________ -1 8.29761 138.780 0 1005 7 270
1960067N08148 1960 11 WP MM JEAN 1960-03-10 18:00:00 TS 8.30000 138.400 main 1055 __O___________ -1 8.30000 138.400 0 1006 8 270

デジタル台風データ・検索

IBTrACS Databaseについて

本データベースは、米国NOAAが公開する1842年以降の世界の熱帯低気圧のベストトラックデータアーカイブInternational Best Track Archive for Climate Stewardship (IBTrACS)を、ウェブで閲覧しやすい形式に変換したものです。

最終更新日:2021-10-21